Time;durP1;ratioP1;P1;durP2;ratioP2;P2;SDS_P1;SDS_P2;PMS_P1;PMS_P2;Temp;Humidity;BMP_temperature;BMP_pressure;BME280_temperature;BME280_humidity;BME280_pressure;Samples;Min_cycle;Max_cycle;Signal;HPM_P1;HPM_P2
2022/07/07 00:00:20;;;;;;;;;;;;;;;19.80;57.86;101968.50;5002119;28;19921;-90
2022/07/07 00:02:45;;;;;;;;;;;;;;;19.73;57.56;101964.50;5007557;28;19925;-90
2022/07/07 00:05:10;;;;;;;;;;;;;;;19.79;57.03;101955.19;5003588;28;19948;-90
2022/07/07 00:07:35;;;;;;;;;;;;;;;19.84;55.30;101951.28;5003218;28;19921;-89
2022/07/07 00:10:00;;;;;;;;;;;;;;;19.82;56.68;101958.56;5005814;28;19944;-90
2022/07/07 00:12:26;;;;;;;;;;;;;;;19.86;57.25;101952.06;5002204;28;19914;-90
2022/07/07 00:14:51;;;;;;;;;;;;;;;19.89;57.31;101950.97;4988014;28;19913;-90
2022/07/07 00:17:16;;;;;;;;;;;;;;;19.86;58.19;101949.38;5005826;28;20486;-89
2022/07/07 00:19:41;;;;;;;;;;;;;;;19.87;55.82;101942.19;5009162;28;19965;-90
2022/07/07 00:22:07;;;;;;;;;;;;;;;19.91;57.26;101937.47;5007535;28;19944;-90
2022/07/07 00:24:32;;;;;;;;;;;;;;;19.93;56.69;101940.94;5010300;28;20422;-90
2022/07/07 00:26:57;;;;;;;;;;;;;;;19.96;55.89;101935.34;5006070;28;20028;-89
2022/07/07 00:29:23;;;;;;;;;;;;;;;19.83;57.35;101927.22;5006956;28;19918;-90
2022/07/07 00:31:48;;;;;;;;;;;;;;;19.84;58.53;101920.88;5010014;28;19917;-90
2022/07/07 00:34:13;;;;;;;;;;;;;;;19.86;55.87;101908.22;5009276;28;19922;-90
2022/07/07 00:36:39;;;;;;;;;;;;;;;19.90;57.50;101911.59;4993178;28;19936;-89
2022/07/07 00:39:05;;;;;;;;;;;;;;;19.83;58.17;101914.66;5008005;28;19956;-90
2022/07/07 00:41:30;;;;;;;;;;;;;;;19.78;57.61;101907.84;5006321;28;19975;-89
2022/07/07 00:43:55;;;;;;;;;;;;;;;19.79;57.89;101910.44;5007503;28;19913;-90
2022/07/07 00:46:21;;;;;;;;;;;;;;;19.81;57.42;101900.47;5007936;28;20478;-90
2022/07/07 00:48:46;;;;;;;;;;;;;;;19.87;57.24;101909.97;5004620;28;19913;-91
2022/07/07 00:51:12;;;;;;;;;;;;;;;19.85;59.03;101910.03;5014094;28;20012;-90
2022/07/07 00:53:37;;;;;;;;;;;;;;;19.80;58.03;101901.41;5008508;28;20162;-90
2022/07/07 00:56:02;;;;;;;;;;;;;;;19.79;59.26;101902.38;5009034;28;20365;-90
2022/07/07 00:58:28;;;;;;;;;;;;;;;19.74;58.39;101888.41;5000714;28;19939;-91
2022/07/07 01:00:53;;;;;;;;;;;;;;;19.75;58.02;101887.44;5006408;28;19917;-90
2022/07/07 01:03:19;;;;;;;;;;;;;;;19.78;58.61;101887.25;5007793;28;19964;-89
2022/07/07 01:05:47;;;;;;;;;;;;;;;19.72;58.61;101894.81;5005351;28;20750;-90
2022/07/07 01:08:16;;;;;;;;;;;;;;;19.75;59.64;101894.63;4993026;28;19944;-89
2022/07/07 01:10:42;;;;;;;;;;;;;;;19.76;57.09;101893.66;5005921;28;20450;-90
2022/07/07 01:13:08;;;;;;;;;;;;;;;19.76;57.73;101890.97;5005547;28;19920;-89
2022/07/07 01:15:33;;;;;;;;;;;;;;;19.82;58.46;101894.16;5018811;28;19921;-90
2022/07/07 01:17:58;;;;;;;;;;;;;;;19.79;58.51;101894.34;5008591;28;19948;-90
2022/07/07 01:20:25;;;;;;;;;;;;;;;19.82;57.14;101895.97;5007294;28;19924;-89
2022/07/07 01:22:51;;;;;;;;;;;;;;;19.83;58.20;101895.00;5002787;28;19964;-91
2022/07/07 01:25:16;;;;;;;;;;;;;;;19.79;58.11;101888.97;5006606;28;19917;-90
2022/07/07 01:27:42;;;;;;;;;;;;;;;19.79;58.51;101886.28;5007363;28;19913;-90
2022/07/07 01:30:07;;;;;;;;;;;;;;;19.80;58.19;101890.69;5007801;28;19913;-90
2022/07/07 01:32:32;;;;;;;;;;;;;;;19.76;59.14;101881.09;5002377;28;19917;-91
2022/07/07 01:34:58;;;;;;;;;;;;;;;19.78;58.08;101884.56;5011967;28;19913;-89
2022/07/07 01:37:24;;;;;;;;;;;;;;;19.80;58.99;101877.28;5011273;28;20386;-90
2022/07/07 01:39:50;;;;;;;;;;;;;;;19.81;59.11;101870.06;5008233;28;19917;-90
2022/07/07 01:42:15;;;;;;;;;;;;;;;19.82;59.40;101869.16;5003256;28;20196;-90
2022/07/07 01:44:41;;;;;;;;;;;;;;;19.81;57.73;101860.19;5002395;28;19921;-90
2022/07/07 01:47:07;;;;;;;;;;;;;;;19.79;59.25;101856.75;5004924;28;19917;-89
2022/07/07 01:49:33;;;;;;;;;;;;;;;19.81;58.11;101860.19;5006705;28;20392;-90
2022/07/07 01:51:59;;;;;;;;;;;;;;;19.81;59.46;101870.94;5007037;28;19914;-90
2022/07/07 01:54:25;;;;;;;;;;;;;;;19.81;58.71;101857.53;5009328;28;20455;-89
2022/07/07 01:56:50;;;;;;;;;;;;;;;19.80;59.92;101858.47;5012810;28;19963;-90
2022/07/07 01:59:15;;;;;;;;;;;;;;;19.77;59.13;101856.00;5007903;28;20020;-90
2022/07/07 02:01:40;;;;;;;;;;;;;;;19.74;59.79;101860.69;5005837;28;19913;-89
2022/07/07 02:04:06;;;;;;;;;;;;;;;19.71;60.17;101856.38;5006864;28;19913;-91
2022/07/07 02:06:32;;;;;;;;;;;;;;;19.69;60.36;101861.00;5007779;28;19950;-90
2022/07/07 02:08:57;;;;;;;;;;;;;;;19.66;59.53;101858.47;5007667;28;19947;-90
2022/07/07 02:11:22;;;;;;;;;;;;;;;19.66;60.10;101846.91;5004794;28;19956;-89
2022/07/07 02:13:49;;;;;;;;;;;;;;;19.72;59.58;101863.47;5003538;28;19917;-90
2022/07/07 02:16:15;;;;;;;;;;;;;;;19.65;60.47;101862.13;5007122;28;20019;-90
2022/07/07 02:18:41;;;;;;;;;;;;;;;19.66;60.49;101850.44;5007657;28;19913;-91
2022/07/07 02:21:07;;;;;;;;;;;;;;;19.63;60.05;101850.63;5007725;28;20463;-90
2022/07/07 02:23:33;;;;;;;;;;;;;;;19.58;61.51;101850.00;5008822;28;20356;-90
2022/07/07 02:25:58;;;;;;;;;;;;;;;19.59;59.73;101851.75;5006856;28;19913;-91
2022/07/07 02:28:24;;;;;;;;;;;;;;;19.61;60.49;101852.53;5007649;28;19924;-90
2022/07/07 02:30:49;;;;;;;;;;;;;;;19.60;60.27;101845.47;5004844;28;20256;-90
2022/07/07 02:33:15;;;;;;;;;;;;;;;19.62;61.21;101843.53;5006713;28;20387;-90
2022/07/07 02:35:41;;;;;;;;;;;;;;;19.65;60.20;101847.84;5006792;28;20320;-90
2022/07/07 02:38:06;;;;;;;;;;;;;;;19.66;61.11;101845.06;5006552;28;20004;-90
2022/07/07 02:40:31;;;;;;;;;;;;;;;19.64;62.59;101840.78;5008156;28;19914;-90
2022/07/07 02:42:56;;;;;;;;;;;;;;;19.58;61.21;101834.81;5005166;28;19975;-91
2022/07/07 02:45:22;;;;;;;;;;;;;;;19.62;61.13;101838.16;5007191;28;20292;-90
2022/07/07 02:47:47;;;;;;;;;;;;;;;19.62;61.48;101849.75;5002307;28;19920;-89
2022/07/07 02:50:12;;;;;;;;;;;;;;;19.66;61.29;101849.56;5004491;28;19913;-89
2022/07/07 02:52:37;;;;;;;;;;;;;;;19.67;60.69;101843.25;5001795;28;20484;-90
2022/07/07 02:55:03;;;;;;;;;;;;;;;19.66;61.15;101828.97;5008419;28;19917;-89
2022/07/07 02:57:28;;;;;;;;;;;;;;;19.66;61.05;101842.38;5001457;28;19918;-89
2022/07/07 02:59:53;;;;;;;;;;;;;;;19.68;61.02;101845.84;5002871;28;20515;-90
2022/07/07 03:02:18;;;;;;;;;;;;;;;19.71;60.59;101850.16;5004238;28;19960;-90
2022/07/07 03:04:43;;;;;;;;;;;;;;;19.72;60.99;101842.00;5006587;28;19917;-90
2022/07/07 03:07:09;;;;;;;;;;;;;;;19.73;61.14;101848.25;5004946;28;19972;-89
2022/07/07 03:09:34;;;;;;;;;;;;;;;19.72;60.46;101843.81;5003995;28;19972;-89
2022/07/07 03:11:59;;;;;;;;;;;;;;;19.68;60.24;101848.53;5006214;28;19949;-90
2022/07/07 03:14:24;;;;;;;;;;;;;;;19.63;59.95;101855.97;4988886;28;20416;-89
2022/07/07 03:16:50;;;;;;;;;;;;;;;19.57;60.55;101857.19;5003549;28;20396;-89
2022/07/07 03:19:15;;;;;;;;;;;;;;;19.55;60.11;101858.25;5016124;28;20020;-90
2022/07/07 03:21:40;;;;;;;;;;;;;;;19.55;61.48;101859.13;5008459;28;19920;-89
2022/07/07 03:24:05;;;;;;;;;;;;;;;19.54;60.33;101860.09;5007727;28;19933;-90
2022/07/07 03:26:31;;;;;;;;;;;;;;;19.49;61.65;101867.56;5005569;28;19913;-90
2022/07/07 03:28:56;;;;;;;;;;;;;;;19.40;63.80;101861.88;5011384;28;19961;-89
2022/07/07 03:31:21;;;;;;;;;;;;;;;19.32;61.07;101863.22;5004214;28;19919;-89
2022/07/07 03:33:46;;;;;;;;;;;;;;;19.25;62.49;101864.53;5002177;28;19964;-90
2022/07/07 03:36:12;;;;;;;;;;;;;;;19.07;63.41;101866.50;5006276;28;19925;-90
2022/07/07 03:38:37;;;;;;;;;;;;;;;18.93;64.31;101861.13;5007344;28;19921;-90
2022/07/07 03:41:03;;;;;;;;;;;;;;;18.85;63.66;101866.91;5009358;28;20506;-90
2022/07/07 03:43:28;;;;;;;;;;;;;;;18.80;63.83;101863.63;5002774;28;19960;-91
2022/07/07 03:45:53;;;;;;;;;;;;;;;18.73;63.25;101856.03;5002258;28;19917;-89
2022/07/07 03:48:18;;;;;;;;;;;;;;;18.69;63.80;101859.84;5005060;28;19923;-91
2022/07/07 03:50:43;;;;;;;;;;;;;;;18.71;63.24;101866.00;5004337;28;20029;-90
2022/07/07 03:53:09;;;;;;;;;;;;;;;18.69;63.06;101863.38;5005543;28;20308;-90
2022/07/07 03:55:34;;;;;;;;;;;;;;;18.68;64.84;101858.94;5008895;28;20419;-91
2022/07/07 03:57:59;;;;;;;;;;;;;;;18.66;63.60;101862.69;5010913;28;19980;-91
2022/07/07 04:00:25;;;;;;;;;;;;;;;18.58;64.77;101863.97;5010389;28;20339;-91
2022/07/07 04:02:50;;;;;;;;;;;;;;;18.47;66.64;101858.38;5004664;28;20328;-90
2022/07/07 04:05:15;;;;;;;;;;;;;;;18.46;66.26;101855.78;5007173;28;20380;-90
2022/07/07 04:07:40;;;;;;;;;;;;;;;18.45;65.57;101854.06;5008325;28;19917;-90
2022/07/07 04:10:06;;;;;;;;;;;;;;;18.45;66.76;101852.22;5008327;28;19997;-90
2022/07/07 04:12:31;;;;;;;;;;;;;;;18.42;64.81;101848.84;5009101;28;20000;-90
2022/07/07 04:14:56;;;;;;;;;;;;;;;18.51;67.20;101833.16;5008270;28;20315;-90
2022/07/07 04:17:21;;;;;;;;;;;;;;;18.39;66.71;101838.34;5009202;28;19921;-90
2022/07/07 04:19:47;;;;;;;;;;;;;;;18.34;67.32;101835.94;5010902;28;19937;-90
2022/07/07 04:22:12;;;;;;;;;;;;;;;18.31;66.52;101836.94;5008709;28;20391;-91
2022/07/07 04:24:37;;;;;;;;;;;;;;;18.30;65.71;101831.69;5008617;28;20008;-91
2022/07/07 04:27:02;;;;;;;;;;;;;;;18.34;65.56;101828.75;5009674;28;20369;-90
2022/07/07 04:29:28;;;;;;;;;;;;;;;18.30;66.69;101826.34;5008530;28;19936;-91
2022/07/07 04:31:53;;;;;;;;;;;;;;;18.26;67.04;101835.50;5007280;28;19936;-90
2022/07/07 04:34:18;;;;;;;;;;;;;;;18.25;66.46;101836.44;5009151;28;19913;-90
2022/07/07 04:36:43;;;;;;;;;;;;;;;18.28;67.08;101845.19;5011698;28;19980;-90
2022/07/07 04:39:09;;;;;;;;;;;;;;;18.30;66.30;101856.66;5007851;28;19944;-90
2022/07/07 04:41:34;;;;;;;;;;;;;;;18.30;67.85;101855.78;4999722;28;19924;-90
2022/07/07 04:43:59;;;;;;;;;;;;;;;18.26;69.19;101854.22;5006002;28;20276;-90
2022/07/07 04:46:25;;;;;;;;;;;;;;;18.23;68.39;101868.66;5011125;28;20281;-91
2022/07/07 04:48:50;;;;;;;;;;;;;;;18.22;68.22;101868.72;5012304;28;19921;-91
2022/07/07 04:51:15;;;;;;;;;;;;;;;18.17;68.30;101873.47;5012471;28;20324;-90
2022/07/07 04:53:41;;;;;;;;;;;;;;;18.17;69.12;101874.34;5006189;28;19917;-89
2022/07/07 04:56:06;;;;;;;;;;;;;;;18.17;67.48;101884.19;5007411;28;19952;-90
2022/07/07 04:58:31;;;;;;;;;;;;;;;18.14;66.81;101879.88;5009996;28;19913;-90
2022/07/07 05:00:57;;;;;;;;;;;;;;;18.14;67.35;101873.63;5006098;28;20295;-90
2022/07/07 05:03:22;;;;;;;;;;;;;;;18.08;67.41;101873.03;5003736;28;19921;-90
2022/07/07 05:05:47;;;;;;;;;;;;;;;18.08;68.21;101877.53;5005888;28;19945;-90
2022/07/07 05:08:12;;;;;;;;;;;;;;;18.10;67.39;101878.31;5006269;28;19905;-90
2022/07/07 05:10:37;;;;;;;;;;;;;;;18.14;67.81;101889.69;5006878;28;19917;-90
2022/07/07 05:13:03;;;;;;;;;;;;;;;18.14;67.69;101889.69;5010423;28;19960;-90
2022/07/07 05:15:28;;;;;;;;;;;;;;;18.16;68.11;101896.72;5002042;28;20247;-90
2022/07/07 05:17:53;;;;;;;;;;;;;;;18.16;67.66;101902.06;5002264;28;20367;-90
2022/07/07 05:20:18;;;;;;;;;;;;;;;18.22;67.37;101907.06;5004014;28;19944;-90
2022/07/07 05:22:43;;;;;;;;;;;;;;;18.27;67.51;101912.16;4999281;28;19960;-90
2022/07/07 05:25:09;;;;;;;;;;;;;;;18.24;67.43;101913.22;5001974;28;20304;-90
2022/07/07 05:27:34;;;;;;;;;;;;;;;18.22;67.39;101909.75;5006147;28;20017;-90
2022/07/07 05:29:59;;;;;;;;;;;;;;;18.27;67.29;101909.50;5008032;28;19996;-90
2022/07/07 05:32:24;;;;;;;;;;;;;;;18.33;67.47;101907.34;5008620;28;19922;-90
2022/07/07 05:34:50;;;;;;;;;;;;;;;18.43;67.19;101909.53;5006140;28;19913;-90
2022/07/07 05:37:15;;;;;;;;;;;;;;;18.47;67.61;101911.06;5008984;28;19917;-90
2022/07/07 05:39:40;;;;;;;;;;;;;;;18.50;68.03;101918.91;5005306;28;19996;-91
2022/07/07 05:42:05;;;;;;;;;;;;;;;18.50;67.83;101918.91;5003734;28;20360;-90
2022/07/07 05:44:31;;;;;;;;;;;;;;;18.53;67.71;101919.63;5008804;28;19960;-91
2022/07/07 05:46:56;;;;;;;;;;;;;;;18.59;67.22;101931.78;5009584;28;19913;-91
2022/07/07 05:49:21;;;;;;;;;;;;;;;18.66;66.52;101933.19;5007654;28;19931;-91
2022/07/07 05:51:46;;;;;;;;;;;;;;;18.71;66.61;101935.63;5006265;28;19913;-90
2022/07/07 05:54:12;;;;;;;;;;;;;;;18.73;66.72;101939.09;4988124;28;19919;-90
2022/07/07 05:56:37;;;;;;;;;;;;;;;18.73;67.14;101939.09;5005577;28;20312;-91
2022/07/07 05:59:02;;;;;;;;;;;;;;;18.65;67.66;101943.97;5005278;28;19921;-90
2022/07/07 06:01:27;;;;;;;;;;;;;;;18.57;67.55;101944.41;5007257;28;19972;-91
2022/07/07 06:03:52;;;;;;;;;;;;;;;18.46;68.37;101958.38;5005426;28;20012;-91
2022/07/07 06:06:18;;;;;;;;;;;;;;;18.40;67.53;101964.09;5004284;28;19925;-90
2022/07/07 06:08:43;;;;;;;;;;;;;;;18.31;67.77;101965.47;5006492;28;19956;-90
2022/07/07 06:11:08;;;;;;;;;;;;;;;18.31;67.63;101967.28;5007893;28;20368;-91
2022/07/07 06:13:33;;;;;;;;;;;;;;;18.31;69.00;101978.84;5004406;28;19921;-92
2022/07/07 06:15:58;;;;;;;;;;;;;;;18.38;67.76;101973.19;5005212;28;19917;-91
2022/07/07 06:18:24;;;;;;;;;;;;;;;18.51;67.83;101988.50;5002888;28;20392;-91
2022/07/07 06:20:49;;;;;;;;;;;;;;;18.65;67.09;101995.72;4992196;28;19917;-91
2022/07/07 06:23:14;;;;;;;;;;;;;;;18.71;66.46;101989.22;5006875;28;19945;-91
2022/07/07 06:25:39;;;;;;;;;;;;;;;18.75;66.41;101994.31;5007229;28;19992;-91
2022/07/07 06:28:04;;;;;;;;;;;;;;;18.77;66.13;102003.13;5009457;28;19955;-91
2022/07/07 06:30:30;;;;;;;;;;;;;;;18.74;65.53;102010.47;5004720;28;20368;-91
2022/07/07 06:32:55;;;;;;;;;;;;;;;18.80;65.64;102011.00;5002565;28;19927;-90
2022/07/07 06:35:21;;;;;;;;;;;;;;;18.84;65.42;102007.19;5016227;28;19964;-90
2022/07/07 06:37:46;;;;;;;;;;;;;;;18.89;65.14;102004.25;5007954;28;20350;-91
2022/07/07 06:40:12;;;;;;;;;;;;;;;18.91;64.68;102009.53;5007693;28;20182;-90
2022/07/07 06:42:37;;;;;;;;;;;;;;;18.95;64.68;102014.63;5009243;28;19952;-90
2022/07/07 06:45:03;;;;;;;;;;;;;;;19.06;64.45;102022.91;5005469;28;20327;-90
2022/07/07 06:47:28;;;;;;;;;;;;;;;19.13;63.37;102018.09;4989162;28;19967;-90
2022/07/07 06:49:54;;;;;;;;;;;;;;;19.13;63.44;102035.97;4998538;28;21207;-91
2022/07/07 06:52:19;;;;;;;;;;;;;;;19.09;63.27;102041.50;5005541;28;19913;-90
2022/07/07 06:54:44;;;;;;;;;;;;;;;19.06;63.15;102046.16;4988927;28;19917;-91
2022/07/07 06:57:10;;;;;;;;;;;;;;;18.82;63.79;102040.38;4987806;28;19917;-89
2022/07/07 06:59:35;;;;;;;;;;;;;;;18.65;62.79;102049.31;5007700;28;19921;-92
2022/07/07 07:02:01;;;;;;;;;;;;;;;18.68;63.16;102046.47;5005606;28;19924;-91
2022/07/07 07:04:26;;;;;;;;;;;;;;;18.81;62.96;102042.19;5003447;28;19913;-90
2022/07/07 07:06:51;;;;;;;;;;;;;;;18.91;62.56;102044.38;5006908;28;19921;-90
2022/07/07 07:09:16;;;;;;;;;;;;;;;18.98;62.64;102046.63;5006045;28;19914;-90
2022/07/07 07:11:42;;;;;;;;;;;;;;;19.10;62.03;102039.69;5006399;28;19917;-89
2022/07/07 07:14:07;;;;;;;;;;;;;;;19.15;61.69;102047.47;5009343;28;19967;-91
2022/07/07 07:16:32;;;;;;;;;;;;;;;19.24;61.17;102044.25;5008508;28;19920;-89
2022/07/07 07:18:58;;;;;;;;;;;;;;;19.36;61.09;102054.28;5006246;28;19919;-89
2022/07/07 07:21:23;;;;;;;;;;;;;;;19.49;61.14;102057.09;5002966;28;19921;-90
2022/07/07 07:23:48;;;;;;;;;;;;;;;19.56;60.55;102047.75;5005149;28;20057;-91
2022/07/07 07:26:13;;;;;;;;;;;;;;;19.69;60.67;102054.19;5006624;28;20003;-90
2022/07/07 07:28:39;;;;;;;;;;;;;;;19.82;60.05;102057.84;5005080;28;19925;-90
2022/07/07 07:31:04;;;;;;;;;;;;;;;19.96;60.00;102064.19;5003517;28;20142;-90
2022/07/07 07:33:30;;;;;;;;;;;;;;;20.11;59.52;102066.84;5004091;28;19921;-89
2022/07/07 07:35:56;;;;;;;;;;;;;;;20.10;59.08;102073.16;5005476;28;19967;-89
2022/07/07 07:38:21;;;;;;;;;;;;;;;20.11;59.01;102080.25;5011283;28;19910;-90
2022/07/07 07:40:46;;;;;;;;;;;;;;;20.30;58.59;102077.31;5009239;28;20766;-91
2022/07/07 07:43:11;;;;;;;;;;;;;;;20.50;57.96;102077.94;5006145;28;19927;-89
2022/07/07 07:45:37;;;;;;;;;;;;;;;21.08;56.78;102083.19;5002481;28;20377;-90
2022/07/07 07:48:03;;;;;;;;;;;;;;;21.30;55.54;102087.13;4999697;28;19921;-89
2022/07/07 07:50:28;;;;;;;;;;;;;;;21.09;55.77;102084.03;5005081;28;19921;-89
2022/07/07 07:52:53;;;;;;;;;;;;;;;20.82;55.76;102084.84;5004358;28;19921;-90
2022/07/07 07:55:20;;;;;;;;;;;;;;;20.93;56.15;102077.91;5003583;28;19956;-88
2022/07/07 07:57:45;;;;;;;;;;;;;;;21.03;55.24;102081.72;5000473;28;20296;-89
2022/07/07 08:00:12;;;;;;;;;;;;;;;20.88;55.43;102084.44;5006789;28;19920;-89
2022/07/07 08:02:37;;;;;;;;;;;;;;;21.07;55.54;102088.63;5003902;28;19944;-89
2022/07/07 08:05:03;;;;;;;;;;;;;;;21.07;55.43;102102.09;5005949;28;19914;-90
2022/07/07 08:07:28;;;;;;;;;;;;;;;20.63;57.12;102097.72;4993088;28;19925;-89
2022/07/07 08:09:53;;;;;;;;;;;;;;;20.13;58.15;102107.00;5004142;28;20296;-89
2022/07/07 08:12:18;;;;;;;;;;;;;;;19.95;57.56;102103.59;5006879;28;19920;-89
2022/07/07 08:14:44;;;;;;;;;;;;;;;19.94;57.75;102101.03;5003442;28;19956;-89
2022/07/07 08:17:10;;;;;;;;;;;;;;;20.08;57.35;102103.75;5006007;28;19918;-90
2022/07/07 08:19:35;;;;;;;;;;;;;;;20.15;57.03;102107.81;5005344;28;19924;-90
2022/07/07 08:22:00;;;;;;;;;;;;;;;20.06;57.22;102119.09;5006028;28;19924;-89
2022/07/07 08:24:25;;;;;;;;;;;;;;;19.99;56.70;102126.63;5000376;28;19913;-88
2022/07/07 08:26:51;;;;;;;;;;;;;;;19.91;57.76;102136.09;5004867;28;19921;-88
2022/07/07 08:29:16;;;;;;;;;;;;;;;19.90;57.43;102131.69;5004702;28;19963;-87
2022/07/07 08:31:41;;;;;;;;;;;;;;;19.94;58.01;102138.59;5004114;28;20151;-87
2022/07/07 08:34:07;;;;;;;;;;;;;;;20.12;57.59;102133.00;5004018;28;19966;-87
2022/07/07 08:36:32;;;;;;;;;;;;;;;20.25;56.97;102127.75;5006220;28;20296;-87
2022/07/07 08:38:57;;;;;;;;;;;;;;;20.36;56.44;102122.59;5003445;28;20379;-87
2022/07/07 08:41:23;;;;;;;;;;;;;;;20.45;56.37;102134.59;5010883;28;19924;-88
2022/07/07 08:43:49;;;;;;;;;;;;;;;20.58;55.37;102121.31;5006924;28;19913;-87
2022/07/07 08:46:15;;;;;;;;;;;;;;;20.63;55.03;102121.91;5006403;28;20554;-88
2022/07/07 08:48:40;;;;;;;;;;;;;;;20.80;55.06;102123.53;5009746;28;19920;-88
2022/07/07 08:51:06;;;;;;;;;;;;;;;20.88;54.51;102126.59;5007987;28;19913;-88
2022/07/07 08:53:35;;;;;;;;;;;;;;;21.05;54.48;102133.59;5008872;28;20264;-87
2022/07/07 08:56:04;;;;;;;;;;;;;;;21.98;53.43;102129.31;5008313;28;19918;-87
2022/07/07 08:58:30;;;;;;;;;;;;;;;23.28;51.06;102137.22;5007051;28;20585;-87
2022/07/07 09:00:55;;;;;;;;;;;;;;;23.88;48.40;102124.69;5006527;28;19921;-87
2022/07/07 09:03:20;;;;;;;;;;;;;;;23.85;49.00;102139.28;5008464;28;20392;-88
2022/07/07 09:05:46;;;;;;;;;;;;;;;23.95;48.65;102136.75;5009460;28;20384;-88
2022/07/07 09:08:15;;;;;;;;;;;;;;;23.55;49.37;102133.44;5006545;28;19939;-87
2022/07/07 09:10:42;;;;;;;;;;;;;;;22.91;50.68;102141.72;5001350;28;19960;-87
2022/07/07 09:13:19;;;;;;;;;;;;;;;22.39;51.53;102146.22;5008359;28;20373;-87
2022/07/07 09:15:44;;;;;;;;;;;;;;;21.94;52.51;102157.41;5008353;28;20728;-87
2022/07/07 09:18:09;;;;;;;;;;;;;;;21.65;52.38;102152.13;5007779;28;19918;-87
2022/07/07 09:20:36;;;;;;;;;;;;;;;21.36;52.47;102165.69;5004343;28;19967;-87
2022/07/07 09:23:01;;;;;;;;;;;;;;;21.22;53.28;102167.50;5008552;28;19999;-88
2022/07/07 09:25:27;;;;;;;;;;;;;;;21.25;53.39;102162.75;5009507;28;20036;-87
2022/07/07 09:27:55;;;;;;;;;;;;;;;21.24;53.31;102168.25;5010495;28;19909;-88
2022/07/07 09:30:31;;;;;;;;;;;;;;;21.08;52.99;102169.22;5007578;28;19968;-88
2022/07/07 09:32:57;;;;;;;;;;;;;;;20.97;53.18;102174.41;5006062;28;19921;-88
2022/07/07 09:38:30;;;;;;;;;;;;;;;20.84;53.94;102178.81;5006414;28;19936;-88
2022/07/07 09:40:55;;;;;;;;;;;;;;;20.82;53.78;102181.59;5003062;28;19963;-87
2022/07/07 09:43:21;;;;;;;;;;;;;;;20.79;53.84;102189.84;5005010;28;19960;-88
2022/07/07 09:45:47;;;;;;;;;;;;;;;20.86;53.85;102190.34;5005760;28;19913;-88
2022/07/07 09:48:13;;;;;;;;;;;;;;;21.12;53.75;102191.41;5006879;28;19930;-88
2022/07/07 09:50:38;;;;;;;;;;;;;;;21.34;53.13;102194.50;5006430;28;19913;-88
2022/07/07 09:53:09;;;;;;;;;;;;;;;21.31;52.91;102202.78;5005271;28;20299;-88
2022/07/07 09:55:35;;;;;;;;;;;;;;;21.23;53.32;102213.13;5005107;28;20204;-88
2022/07/07 09:58:00;;;;;;;;;;;;;;;21.18;53.25;102206.31;5005174;28;19921;-88
2022/07/07 10:00:25;;;;;;;;;;;;;;;21.13;53.87;102211.97;5007042;28;19932;-88
2022/07/07 10:02:52;;;;;;;;;;;;;;;21.21;53.82;102215.03;5005454;28;20375;-88
2022/07/07 10:05:18;;;;;;;;;;;;;;;21.31;53.53;102220.72;5009110;28;19913;-88
2022/07/07 10:07:46;;;;;;;;;;;;;;;21.66;52.70;102223.84;5007526;28;19925;-88
2022/07/07 10:10:12;;;;;;;;;;;;;;;21.82;52.13;102224.59;5008752;28;20459;-88
2022/07/07 10:12:44;;;;;;;;;;;;;;;21.93;52.03;102226.56;5007899;28;19952;-87
2022/07/07 10:15:13;;;;;;;;;;;;;;;22.01;52.16;102228.72;5006418;28;19920;-88
2022/07/07 10:17:41;;;;;;;;;;;;;;;22.05;52.20;102232.94;5004216;28;19925;-88
2022/07/07 10:20:07;;;;;;;;;;;;;;;21.84;52.55;102228.03;5005365;28;19913;-89
2022/07/07 10:22:34;;;;;;;;;;;;;;;21.52;52.96;102238.19;5006780;28;19918;-90
2022/07/07 10:25:00;;;;;;;;;;;;;;;21.23;53.62;102241.84;5007119;28;19913;-89
2022/07/07 10:27:26;;;;;;;;;;;;;;;21.01;54.99;102250.38;5007259;28;19986;-90
2022/07/07 10:29:53;;;;;;;;;;;;;;;20.82;55.03;102256.88;4999374;28;20364;-90
2022/07/07 10:32:28;;;;;;;;;;;;;;;20.78;55.30;102263.41;5010381;28;19967;-90
2022/07/07 10:34:55;;;;;;;;;;;;;;;20.82;55.33;102264.94;4991894;28;19917;-89
2022/07/07 10:37:21;;;;;;;;;;;;;;;20.72;56.13;102270.97;5006307;28;19917;-89
2022/07/07 10:39:47;;;;;;;;;;;;;;;20.73;56.80;102270.88;5006698;28;19953;-90
2022/07/07 10:42:16;;;;;;;;;;;;;;;21.01;55.66;102272.75;5009093;28;19982;-90
2022/07/07 10:44:42;;;;;;;;;;;;;;;21.36;55.44;102270.59;5007725;28;19920;-90
2022/07/07 10:47:10;;;;;;;;;;;;;;;21.53;55.57;102265.97;5005296;28;20351;-89
2022/07/07 10:49:42;;;;;;;;;;;;;;;21.68;55.29;102270.34;5008055;28;19922;-89
2022/07/07 10:52:15;;;;;;;;;;;;;;;21.73;54.95;102272.75;5004476;28;19917;-89
2022/07/07 10:54:44;;;;;;;;;;;;;;;21.65;55.21;102275.97;5002080;28;20381;-90
2022/07/07 10:57:09;;;;;;;;;;;;;;;21.55;55.36;102278.38;5002881;28;19918;-90
2022/07/07 10:59:56;;;;;;;;;;;;;;;21.33;55.82;102280.69;4998940;28;19968;-90
2022/07/07 11:02:56;;;;;;;;;;;;;;;21.05;56.37;102292.25;5001958;28;19921;-89
2022/07/07 11:05:28;;;;;;;;;;;;;;;20.93;56.86;102304.59;4927886;28;20016;-89
2022/07/07 11:07:56;;;;;;;;;;;;;;;20.99;57.03;102300.72;4987050;28;20424;-88
2022/07/07 11:10:22;;;;;;;;;;;;;;;20.99;56.75;102303.41;5004369;28;20008;-89
2022/07/07 11:12:53;;;;;;;;;;;;;;;21.09;57.07;102312.63;5003022;28;20004;-89
2022/07/07 11:15:18;;;;;;;;;;;;;;;21.15;57.56;102315.78;5003224;28;19925;-89
2022/07/07 11:17:45;;;;;;;;;;;;;;;21.28;57.18;102315.91;5006700;28;19917;-89
2022/07/07 11:20:14;;;;;;;;;;;;;;;21.29;56.41;102317.63;5007519;28;20002;-88
2022/07/07 11:22:46;;;;;;;;;;;;;;;21.35;56.44;102319.09;5005055;28;20348;-89
2022/07/07 11:25:13;;;;;;;;;;;;;;;21.38;55.68;102319.78;5003767;28;19988;-90
2022/07/07 11:27:38;;;;;;;;;;;;;;;21.31;55.88;102328.31;5003158;28;19979;-89
2022/07/07 11:30:04;;;;;;;;;;;;;;;21.05;57.73;102335.28;5006307;28;20015;-90
2022/07/07 11:32:39;;;;;;;;;;;;;;;20.57;58.35;102338.13;5005877;28;20383;-89
2022/07/07 11:35:06;;;;;;;;;;;;;;;20.22;59.79;102347.28;5008161;28;19929;-88
2022/07/07 11:37:32;;;;;;;;;;;;;;;20.12;61.00;102344.25;5006656;28;19925;-89
2022/07/07 11:39:57;;;;;;;;;;;;;;;20.22;61.23;102341.91;5004500;28;20059;-89
2022/07/07 11:42:23;;;;;;;;;;;;;;;20.60;59.42;102345.97;5008057;28;19921;-89
2022/07/07 11:44:49;;;;;;;;;;;;;;;20.87;60.00;102340.78;5002812;28;20364;-89
2022/07/07 11:47:15;;;;;;;;;;;;;;;21.11;58.05;102342.97;5003379;28;20284;-89
2022/07/07 11:49:40;;;;;;;;;;;;;;;21.20;57.69;102350.47;5004916;28;19918;-88
2022/07/07 11:52:06;;;;;;;;;;;;;;;21.06;58.62;102361.22;5007075;28;19913;-88
2022/07/07 11:54:31;;;;;;;;;;;;;;;20.83;58.96;102351.81;5003328;28;20353;-89
2022/07/07 11:56:56;;;;;;;;;;;;;;;20.81;59.27;102357.31;5007983;28;19924;-89
2022/07/07 11:59:22;;;;;;;;;;;;;;;20.98;60.12;102353.59;5001522;28;19913;-90
2022/07/07 12:01:50;;;;;;;;;;;;;;;21.46;58.88;102356.13;5008629;28;20357;-89
2022/07/07 12:04:23;;;;;;;;;;;;;;;21.70;58.04;102342.97;5005063;28;20498;-89
2022/07/07 12:06:50;;;;;;;;;;;;;;;21.65;57.39;102349.50;5002286;28;20051;-89
2022/07/07 12:09:19;;;;;;;;;;;;;;;21.51;57.09;102359.41;5002438;28;19914;-90
2022/07/07 12:11:45;;;;;;;;;;;;;;;21.24;57.53;102359.22;5006014;28;20044;-89
2022/07/07 12:14:11;;;;;;;;;;;;;;;21.08;57.13;102362.88;5003585;28;20004;-89
2022/07/07 12:16:44;;;;;;;;;;;;;;;20.97;57.65;102368.00;5007578;28;19952;-89
2022/07/07 12:19:09;;;;;;;;;;;;;;;21.16;56.99;102370.44;5010769;28;19917;-89
2022/07/07 12:21:41;;;;;;;;;;;;;;;21.33;56.19;102374.84;4993955;28;19968;-89
2022/07/07 12:24:06;;;;;;;;;;;;;;;21.43;55.96;102369.75;5007934;28;19925;-89
2022/07/07 12:26:41;;;;;;;;;;;;;;;21.56;55.09;102363.53;5008429;28;19913;-89
2022/07/07 12:29:08;;;;;;;;;;;;;;;21.79;54.20;102363.91;5008182;28;19921;-89
2022/07/07 12:31:35;;;;;;;;;;;;;;;22.04;53.95;102363.22;5007170;28;19913;-89